Time;durP1;ratioP1;P1;durP2;ratioP2;P2;SDS_P1;SDS_P2;PMS_P1;PMS_P2;Temp;Humidity;BMP_temperature;BMP_pressure;BME280_temperature;BME280_humidity;BME280_pressure;Samples;Min_cycle;Max_cycle;Signal;HPM_P1;HPM_P2
2020/12/19 00:01:10;;;;;;;27.80;16.67;;;5.60;75.00;;;;;;5055384;28;20025;-63
2020/12/19 00:03:36;;;;;;;28.02;16.02;;;5.60;75.20;;;;;;5041280;28;20482;-63
2020/12/19 00:06:06;;;;;;;23.20;15.30;;;5.60;75.30;;;;;;5058606;28;20040;-63
2020/12/19 00:08:31;;;;;;;28.33;16.38;;;5.70;75.30;;;;;;5055179;28;20107;-63
2020/12/19 00:10:57;;;;;;;28.23;16.38;;;5.70;75.30;;;;;;5054373;28;20135;-62
2020/12/19 00:13:22;;;;;;;24.20;14.73;;;5.70;75.30;;;;;;5055031;28;20036;-62
2020/12/19 00:15:48;;;;;;;25.83;15.13;;;5.70;75.10;;;;;;5054883;28;20104;-63
2020/12/19 00:18:14;;;;;;;27.27;14.57;;;5.70;74.70;;;;;;5055272;28;20025;-62
2020/12/19 00:20:40;;;;;;;25.15;15.57;;;5.70;74.60;;;;;;5039521;28;20541;-62
2020/12/19 00:23:05;;;;;;;25.42;14.50;;;5.70;74.80;;;;;;5052269;28;20060;-62
2020/12/19 00:25:31;;;;;;;25.10;14.65;;;5.70;74.70;;;;;;5052243;28;20112;-62
2020/12/19 00:27:57;;;;;;;26.10;15.35;;;5.70;74.90;;;;;;5046242;28;20037;-63
2020/12/19 00:30:22;;;;;;;26.60;14.93;;;5.70;74.90;;;;;;5042578;28;20413;-63
2020/12/19 00:32:48;;;;;;;24.00;14.77;;;5.70;75.00;;;;;;5057976;28;20044;-63
2020/12/19 00:35:14;;;;;;;22.42;13.88;;;5.70;75.10;;;;;;5062608;28;20426;-63
2020/12/19 00:37:41;;;;;;;24.30;15.18;;;5.70;75.10;;;;;;5061420;28;20032;-63
2020/12/19 00:40:07;;;;;;;23.08;13.98;;;5.70;75.20;;;;;;5056337;28;20338;-63
2020/12/19 00:42:36;;;;;;;25.23;14.43;;;5.70;75.20;;;;;;5054518;28;20021;-63
2020/12/19 00:45:03;;;;;;;24.20;14.50;;;5.70;75.20;;;;;;5054656;28;20029;-62
2020/12/19 00:47:29;;;;;;;22.05;14.18;;;5.70;75.00;;;;;;5058063;28;20036;-62
2020/12/19 00:49:54;;;;;;;24.38;14.10;;;5.70;75.10;;;;;;5065283;28;20372;-62
2020/12/19 00:52:20;;;;;;;24.88;14.25;;;5.70;75.30;;;;;;5070055;28;20060;-62
2020/12/19 00:54:46;;;;;;;25.48;14.13;;;5.70;75.30;;;;;;5061354;28;20013;-62
2020/12/19 00:57:11;;;;;;;24.77;14.32;;;5.80;75.30;;;;;;5050599;28;20024;-63
2020/12/19 00:59:37;;;;;;;22.38;13.30;;;5.80;75.30;;;;;;5047297;28;20033;-63
2020/12/19 01:02:03;;;;;;;25.27;14.68;;;5.80;75.10;;;;;;5053600;28;20021;-63
2020/12/19 01:04:28;;;;;;;23.75;14.18;;;5.80;74.80;;;;;;5053193;28;20025;-63
2020/12/19 01:06:54;;;;;;;20.98;12.98;;;5.80;75.10;;;;;;5055966;28;20025;-63
2020/12/19 01:09:20;;;;;;;19.38;12.75;;;5.70;74.80;;;;;;5058695;28;20033;-63
2020/12/19 01:11:45;;;;;;;23.10;13.50;;;5.70;74.80;;;;;;5050334;28;20069;-63
2020/12/19 01:14:11;;;;;;;21.60;13.10;;;5.70;74.80;;;;;;5051438;28;20060;-63
2020/12/19 01:16:38;;;;;;;17.60;11.05;;;5.70;74.80;;;;;;5041637;28;20448;-63
2020/12/19 01:19:04;;;;;;;20.55;11.85;;;5.70;74.90;;;;;;5052924;28;20417;-62
2020/12/19 01:21:31;;;;;;;19.30;11.98;;;5.60;75.00;;;;;;5055068;28;20029;-62
2020/12/19 01:23:57;;;;;;;23.95;12.45;;;5.60;75.10;;;;;;5054203;28;20469;-62
2020/12/19 01:26:23;;;;;;;20.40;11.55;;;5.70;75.20;;;;;;5052269;28;20461;-62
2020/12/19 01:28:49;;;;;;;19.20;11.60;;;5.60;75.10;;;;;;5062946;28;20044;-62
2020/12/19 01:31:19;;;;;;;19.80;12.18;;;5.60;75.70;;;;;;5069730;28;20423;-62
2020/12/19 01:33:45;;;;;;;22.75;12.80;;;5.60;75.10;;;;;;5047984;28;20366;-62
2020/12/19 01:36:15;;;;;;;21.48;11.38;;;5.60;75.10;;;;;;5052994;28;20401;-62
2020/12/19 01:38:42;;;;;;;21.67;13.18;;;5.60;75.20;;;;;;5058561;28;20036;-63
2020/12/19 01:41:08;;;;;;;20.80;11.52;;;5.60;75.20;;;;;;5059556;28;20033;-62
2020/12/19 01:43:54;;;;;;;21.65;12.40;;;5.60;75.30;;;;;;5060151;28;20032;-62
2020/12/19 01:46:54;;;;;;;18.83;11.38;;;5.60;75.40;;;;;;5045633;28;20029;-62
2020/12/19 01:49:24;;;;;;;20.73;11.15;;;5.60;75.40;;;;;;5043958;28;20056;-62
2020/12/19 01:51:53;;;;;;;17.95;11.68;;;5.60;75.30;;;;;;5050784;28;20025;-62
2020/12/19 01:54:21;;;;;;;20.23;10.90;;;5.60;75.40;;;;;;5049147;28;20017;-63
2020/12/19 01:56:49;;;;;;;21.05;11.38;;;5.60;75.50;;;;;;5051364;28;20059;-63
2020/12/19 01:59:16;;;;;;;21.60;11.50;;;5.60;75.70;;;;;;5052128;28;20028;-63
2020/12/19 02:01:56;;;;;;;20.80;11.52;;;5.60;75.60;;;;;;5055196;28;20033;-63
2020/12/19 02:04:23;;;;;;;21.52;11.82;;;5.60;75.40;;;;;;5043732;28;20078;-63
2020/12/19 02:06:55;;;;;;;23.45;12.57;;;5.60;75.70;;;;;;5053579;28;20453;-62
2020/12/19 02:09:23;;;;;;;20.33;12.18;;;5.60;75.60;;;;;;5046856;28;20406;-62
2020/12/19 02:11:49;;;;;;;20.85;11.90;;;5.60;75.50;;;;;;5058727;28;20093;-62
2020/12/19 02:14:15;;;;;;;19.85;11.18;;;5.60;75.40;;;;;;5061007;28;20096;-63
2020/12/19 02:16:59;;;;;;;20.10;11.98;;;5.60;75.60;;;;;;5054195;28;20147;-63
2020/12/19 02:19:26;;;;;;;22.30;11.80;;;5.60;75.30;;;;;;5052237;28;20025;-63
2020/12/19 02:21:53;;;;;;;21.77;10.77;;;5.60;75.60;;;;;;5052561;28;20460;-62
2020/12/19 02:24:18;;;;;;;18.45;11.32;;;5.60;75.40;;;;;;5047018;28;20032;-62
2020/12/19 02:26:53;;;;;;;18.20;10.35;;;5.60;75.40;;;;;;5049022;28;20489;-62
2020/12/19 02:29:20;;;;;;;17.60;9.30;;;5.60;75.30;;;;;;5055198;28;20052;-62
2020/12/19 02:31:46;;;;;;;20.52;11.32;;;5.60;75.40;;;;;;5042890;28;20043;-62
2020/12/19 02:34:12;;;;;;;18.50;10.73;;;5.60;75.40;;;;;;5051000;28;20064;-62
2020/12/19 02:36:39;;;;;;;20.67;12.27;;;5.60;75.50;;;;;;5048915;28;20037;-62
2020/12/19 02:39:05;;;;;;;21.35;12.55;;;5.60;75.50;;;;;;5051523;28;20077;-62
2020/12/19 02:41:39;;;;;;;24.13;13.27;;;5.60;75.70;;;;;;5055074;28;20021;-62
2020/12/19 02:44:08;;;;;;;21.52;11.88;;;5.60;75.60;;;;;;5063023;28;20020;-62
2020/12/19 02:46:34;;;;;;;20.15;12.05;;;5.60;75.60;;;;;;5062566;28;20531;-63
2020/12/19 02:49:00;;;;;;;19.58;11.70;;;5.70;75.30;;;;;;5065668;28;20024;-63
2020/12/19 02:51:26;;;;;;;20.48;11.93;;;5.70;75.40;;;;;;5064101;28;20483;-63
2020/12/19 02:53:52;;;;;;;18.23;10.90;;;5.70;75.40;;;;;;5058948;28;20025;-63
2020/12/19 02:56:17;;;;;;;18.85;11.65;;;5.70;75.20;;;;;;5057528;28;20021;-63
2020/12/19 02:58:43;;;;;;;15.75;10.15;;;5.70;75.20;;;;;;5063200;28;20032;-63
2020/12/19 03:01:09;;;;;;;20.50;11.43;;;5.80;75.40;;;;;;5053979;28;20040;-63
2020/12/19 03:03:35;;;;;;;18.58;10.55;;;5.80;75.30;;;;;;5045447;28;20066;-63
2020/12/19 03:06:00;;;;;;;17.48;11.13;;;5.80;75.20;;;;;;5049342;28;20040;-63
2020/12/19 03:08:26;;;;;;;19.23;10.27;;;5.80;74.90;;;;;;5049467;28;20017;-63
2020/12/19 03:10:52;;;;;;;17.38;9.90;;;5.80;75.00;;;;;;5055524;28;20032;-63
2020/12/19 03:13:18;;;;;;;18.15;10.30;;;5.80;75.00;;;;;;5059877;28;20541;-63
2020/12/19 03:15:43;;;;;;;18.13;11.02;;;5.80;74.90;;;;;;5054257;28;20013;-63
2020/12/19 03:18:09;;;;;;;15.23;9.82;;;5.80;75.10;;;;;;5054094;28;20068;-63
2020/12/19 03:20:35;;;;;;;18.27;11.02;;;5.80;75.10;;;;;;5049952;28;20461;-63
2020/12/19 03:23:00;;;;;;;18.65;10.98;;;5.90;75.00;;;;;;5053172;28;20377;-63
2020/12/19 03:25:27;;;;;;;18.67;10.48;;;5.90;75.20;;;;;;5051086;28;20022;-63
2020/12/19 03:27:53;;;;;;;15.80;9.85;;;5.90;75.10;;;;;;5048699;28;20096;-63
2020/12/19 03:30:19;;;;;;;17.67;11.20;;;5.90;75.20;;;;;;5057638;28;20100;-63
2020/12/19 03:32:45;;;;;;;18.35;10.88;;;5.90;75.10;;;;;;5048218;28;20109;-63
2020/12/19 03:35:11;;;;;;;16.77;10.95;;;5.90;75.00;;;;;;5041982;28;20032;-63
2020/12/19 03:37:36;;;;;;;20.58;12.23;;;5.90;75.00;;;;;;5052782;28;20036;-63
2020/12/19 03:40:03;;;;;;;22.30;12.02;;;5.90;74.90;;;;;;5053192;28;20032;-63
2020/12/19 03:42:29;;;;;;;18.55;11.98;;;5.90;75.00;;;;;;5059160;28;20021;-63
2020/12/19 03:44:55;;;;;;;18.30;10.93;;;5.90;75.00;;;;;;5054085;28;20039;-63
2020/12/19 03:47:21;;;;;;;19.95;11.07;;;5.90;75.00;;;;;;5059350;28;20032;-63
2020/12/19 03:49:47;;;;;;;18.65;11.68;;;5.90;75.00;;;;;;5059354;28;20108;-63
2020/12/19 03:52:12;;;;;;;17.52;9.82;;;5.90;75.20;;;;;;5049323;28;20029;-62
2020/12/19 03:54:38;;;;;;;23.17;12.68;;;5.90;75.20;;;;;;5054999;28;20020;-62
2020/12/19 03:57:04;;;;;;;17.23;10.48;;;6.00;75.10;;;;;;5052210;28;20018;-62
2020/12/19 03:59:30;;;;;;;18.08;11.30;;;6.00;75.10;;;;;;5048438;28;20048;-63
2020/12/19 04:01:55;;;;;;;21.38;12.35;;;6.00;75.10;;;;;;5047179;28;20791;-63
2020/12/19 04:04:21;;;;;;;18.65;11.27;;;6.00;74.90;;;;;;5049307;28;20024;-63
2020/12/19 04:06:47;;;;;;;20.13;11.10;;;6.00;74.90;;;;;;5047158;28;20034;-63
2020/12/19 04:09:12;;;;;;;19.52;10.90;;;6.00;75.10;;;;;;5054676;28;20033;-63
2020/12/19 04:11:38;;;;;;;18.23;10.18;;;5.90;74.80;;;;;;5054455;28;20449;-63
2020/12/19 04:14:04;;;;;;;15.80;10.02;;;5.90;75.00;;;;;;5054780;28;20036;-63
2020/12/19 04:16:29;;;;;;;13.55;8.55;;;5.90;75.10;;;;;;5061725;28;20040;-63
2020/12/19 04:18:55;;;;;;;17.00;10.38;;;5.90;75.00;;;;;;5051764;28;20025;-63
2020/12/19 04:21:21;;;;;;;19.23;10.75;;;5.90;74.60;;;;;;5047794;28;20556;-63
2020/12/19 04:23:46;;;;;;;15.80;9.82;;;5.80;74.80;;;;;;5050334;28;20025;-63
2020/12/19 04:26:12;;;;;;;14.60;10.07;;;5.80;75.00;;;;;;5059267;28;20049;-63
2020/12/19 04:28:38;;;;;;;15.02;10.00;;;5.80;75.10;;;;;;5055902;28;20057;-63
2020/12/19 04:31:03;;;;;;;17.08;9.43;;;5.70;75.00;;;;;;5051014;28;20052;-63
2020/12/19 04:33:29;;;;;;;15.65;9.75;;;5.70;75.10;;;;;;5045017;28;20021;-63
2020/12/19 04:35:55;;;;;;;15.25;9.10;;;5.70;75.10;;;;;;5045789;28;20025;-63
2020/12/19 04:38:20;;;;;;;15.68;9.32;;;5.70;75.50;;;;;;5044767;28;20021;-63
2020/12/19 04:40:46;;;;;;;15.50;8.85;;;5.70;75.70;;;;;;5053939;28;20523;-63
2020/12/19 04:43:15;;;;;;;17.65;9.75;;;5.70;75.00;;;;;;5050640;28;20032;-62
2020/12/19 04:45:42;;;;;;;15.30;9.68;;;5.60;75.00;;;;;;5052973;28;20079;-62
2020/12/19 04:48:08;;;;;;;13.63;8.80;;;5.60;75.00;;;;;;5052026;28;20032;-62
2020/12/19 04:50:38;;;;;;;15.07;9.70;;;5.50;75.30;;;;;;5051106;28;20029;-62
2020/12/19 04:53:16;;;;;;;15.57;9.32;;;5.50;75.50;;;;;;5051561;28;20029;-62
2020/12/19 04:55:42;;;;;;;15.93;10.07;;;5.40;75.50;;;;;;5050040;28;20071;-62
2020/12/19 04:58:13;;;;;;;14.77;9.40;;;5.40;75.70;;;;;;5046192;28;20101;-62
2020/12/19 05:00:41;;;;;;;16.33;9.70;;;5.40;75.50;;;;;;5048183;28;20036;-63
2020/12/19 05:03:07;;;;;;;17.02;10.07;;;5.40;75.70;;;;;;5045727;28;20474;-62
2020/12/19 05:05:34;;;;;;;17.05;10.02;;;5.40;76.00;;;;;;5052548;28;20477;-62
2020/12/19 05:08:00;;;;;;;16.90;9.55;;;5.40;75.90;;;;;;5044110;28;20044;-62
2020/12/19 05:10:25;;;;;;;18.27;10.30;;;5.40;76.00;;;;;;5052941;28;20022;-62
2020/12/19 05:12:54;;;;;;;18.63;10.38;;;5.40;75.80;;;;;;5058089;28;20017;-62
2020/12/19 05:15:21;;;;;;;21.23;10.77;;;5.40;76.00;;;;;;5058711;28;20029;-62
2020/12/19 05:17:55;;;;;;;16.45;10.35;;;5.40;76.00;;;;;;5039732;28;20029;-62
2020/12/19 05:20:21;;;;;;;19.60;11.43;;;5.40;76.20;;;;;;5042832;28;20028;-62
2020/12/19 05:22:51;;;;;;;20.90;11.48;;;5.40;76.00;;;;;;5052238;28;20029;-62
2020/12/19 05:25:19;;;;;;;17.83;11.15;;;5.50;75.80;;;;;;5061372;28;20020;-62
2020/12/19 05:27:46;;;;;;;16.27;9.95;;;5.50;75.90;;;;;;5049069;28;20049;-62
2020/12/19 05:30:17;;;;;;;22.10;11.32;;;5.50;76.60;;;;;;5027542;28;20472;-62
2020/12/19 05:32:48;;;;;;;21.23;10.25;;;5.50;76.10;;;;;;5019980;28;20369;-62
2020/12/19 05:35:15;;;;;;;17.40;10.15;;;5.40;75.90;;;;;;5023007;28;20027;-62
2020/12/19 05:37:41;;;;;;;19.42;10.85;;;5.40;75.80;;;;;;5026648;28;20324;-62
2020/12/19 05:40:12;;;;;;;19.42;10.80;;;5.40;76.00;;;;;;5025747;28;20250;-62
2020/12/19 05:42:41;;;;;;;18.67;10.20;;;5.40;76.10;;;;;;5033411;28;20049;-62
2020/12/19 05:45:17;;;;;;;18.98;10.73;;;5.40;76.10;;;;;;5035389;28;20262;-62
2020/12/19 05:47:43;;;;;;;18.27;10.20;;;5.40;76.00;;;;;;5030929;28;20037;-62
2020/12/19 05:50:09;;;;;;;17.75;10.77;;;5.30;76.10;;;;;;5028668;28;20034;-62
2020/12/19 05:52:39;;;;;;;17.85;10.02;;;5.30;76.20;;;;;;5030413;28;20029;-62
2020/12/19 05:55:11;;;;;;;17.20;9.80;;;5.30;76.30;;;;;;5024764;28;20029;-62
2020/12/19 05:57:37;;;;;;;16.38;9.80;;;5.30;76.20;;;;;;5016465;28;20021;-62
2020/12/19 06:00:12;;;;;;;22.08;12.25;;;5.30;76.30;;;;;;5028169;28;20025;-62
2020/12/19 06:02:38;;;;;;;18.90;10.35;;;5.30;76.40;;;;;;5028082;28;20411;-63
2020/12/19 06:05:06;;;;;;;18.30;10.45;;;5.30;76.40;;;;;;5027227;28;20021;-63
2020/12/19 06:07:40;;;;;;;20.30;10.63;;;5.30;76.50;;;;;;5032187;28;20023;-63
2020/12/19 06:10:09;;;;;;;19.77;10.85;;;5.30;76.50;;;;;;5031683;28;20030;-62
2020/12/19 06:13:11;;;;;;;16.92;10.18;;;5.30;76.60;;;;;;5024760;28;20025;-62
2020/12/19 06:15:55;;;;;;;19.77;11.77;;;5.40;76.50;;;;;;5021453;28;20477;-62
2020/12/19 06:18:46;;;;;;;18.15;10.48;;;5.40;76.40;;;;;;5030718;28;20017;-62
2020/12/19 06:21:12;;;;;;;17.40;10.15;;;5.40;76.60;;;;;;5020627;28;20105;-62
2020/12/19 06:23:39;;;;;;;18.42;10.30;;;5.40;76.60;;;;;;5014656;28;20088;-62
2020/12/19 06:26:06;;;;;;;19.40;10.40;;;5.40;76.80;;;;;;5014963;28;20084;-62
2020/12/19 06:28:41;;;;;;;17.30;10.63;;;5.40;76.60;;;;;;5026478;28;20599;-62
2020/12/19 06:31:11;;;;;;;17.77;10.48;;;5.40;76.50;;;;;;5052810;28;20029;-62
2020/12/19 06:33:39;;;;;;;17.60;10.48;;;5.40;76.60;;;;;;5069754;28;20103;-62
2020/12/19 06:36:21;;;;;;;15.43;9.02;;;5.40;76.60;;;;;;5071275;28;20338;-62
2020/12/19 06:39:07;;;;;;;19.83;11.32;;;5.40;76.50;;;;;;5051649;28;20473;-62
2020/12/19 06:41:42;;;;;;;19.52;10.98;;;5.40;76.50;;;;;;5066367;28;20048;-62
2020/12/19 06:44:12;;;;;;;19.05;10.40;;;5.50;77.00;;;;;;5056372;28;20044;-62
2020/12/19 06:46:38;;;;;;;20.17;11.88;;;5.40;76.90;;;;;;5056359;28;20025;-62
2020/12/19 06:49:22;;;;;;;19.50;11.50;;;5.40;76.90;;;;;;5073000;28;20496;-62
2020/12/19 06:51:57;;;;;;;20.05;11.40;;;5.40;76.90;;;;;;5057789;28;20032;-62
2020/12/19 06:54:43;;;;;;;22.65;12.50;;;5.50;76.90;;;;;;5053800;28;20025;-62
2020/12/19 06:57:25;;;;;;;21.35;11.60;;;5.50;76.70;;;;;;5044904;28;20476;-62
2020/12/19 06:59:52;;;;;;;19.40;11.40;;;5.50;76.80;;;;;;5040269;28;20766;-63
2020/12/19 07:02:18;;;;;;;23.45;12.25;;;5.40;76.90;;;;;;5041941;28;20392;-63
2020/12/19 07:04:44;;;;;;;25.38;11.77;;;5.50;76.90;;;;;;5046201;28;20036;-63
2020/12/19 07:07:13;;;;;;;21.60;12.27;;;5.50;77.10;;;;;;5049904;28;20045;-63
2020/12/19 07:09:39;;;;;;;24.92;12.18;;;5.50;77.00;;;;;;5048245;28;20025;-63
2020/12/19 07:12:25;;;;;;;22.67;11.63;;;5.60;77.30;;;;;;5051788;28;20036;-63
2020/12/19 07:14:51;;;;;;;24.35;12.30;;;5.60;77.10;;;;;;5053780;28;20460;-63
2020/12/19 07:17:19;;;;;;;27.27;12.73;;;5.60;77.20;;;;;;5048636;28;20033;-63
2020/12/19 07:20:04;;;;;;;26.88;13.60;;;5.60;77.30;;;;;;5045115;28;20030;-63
2020/12/19 07:22:30;;;;;;;23.08;11.77;;;5.60;77.30;;;;;;5046650;28;20429;-62
2020/12/19 07:24:56;;;;;;;26.55;12.63;;;5.60;77.20;;;;;;5055971;28;20036;-62
2020/12/19 07:27:22;;;;;;;26.73;13.38;;;5.60;77.10;;;;;;5048349;28;20025;-63
2020/12/19 07:29:48;;;;;;;24.05;12.25;;;5.70;77.30;;;;;;5051325;28;20081;-62
2020/12/19 07:32:14;;;;;;;25.05;12.80;;;5.70;77.00;;;;;;5046585;28;20095;-62
2020/12/19 07:34:40;;;;;;;24.23;12.80;;;5.70;77.00;;;;;;5051281;28;20431;-62
2020/12/19 07:37:06;;;;;;;26.27;13.73;;;5.70;77.30;;;;;;5049863;28;20021;-62
2020/12/19 07:39:32;;;;;;;25.45;12.50;;;5.70;77.30;;;;;;5044587;28;20027;-62
2020/12/19 07:42:09;;;;;;;28.33;13.27;;;5.70;77.30;;;;;;5053790;28;20112;-62
2020/12/19 07:44:37;;;;;;;28.45;13.93;;;5.70;77.20;;;;;;5046390;28;20033;-63
2020/12/19 07:47:10;;;;;;;29.27;13.57;;;5.70;77.20;;;;;;5043274;28;20044;-62
2020/12/19 07:49:36;;;;;;;25.92;12.15;;;5.70;77.10;;;;;;5042573;28;20029;-62
2020/12/19 07:52:07;;;;;;;27.13;12.68;;;5.70;77.20;;;;;;5047518;28;20461;-62
2020/12/19 07:54:33;;;;;;;27.67;13.98;;;5.70;77.10;;;;;;5046258;28;20469;-62
2020/12/19 07:57:00;;;;;;;26.48;13.27;;;5.70;77.20;;;;;;5044679;28;20111;-62
2020/12/19 07:59:26;;;;;;;26.17;12.38;;;5.70;77.30;;;;;;5045255;28;20044;-62
2020/12/19 08:01:56;;;;;;;24.67;12.52;;;5.70;77.40;;;;;;5045921;28;20031;-62
2020/12/19 08:04:22;;;;;;;25.00;12.52;;;5.70;77.40;;;;;;5046344;28;20017;-62
2020/12/19 08:06:48;;;;;;;27.92;13.38;;;5.70;77.40;;;;;;5043063;28;20088;-62
2020/12/19 08:09:18;;;;;;;27.05;12.38;;;5.70;77.40;;;;;;5062031;28;20028;-62
2020/12/19 08:11:46;;;;;;;32.42;13.48;;;5.70;77.40;;;;;;5041896;28;20022;-62
2020/12/19 08:14:15;;;;;;;30.45;12.75;;;5.70;77.30;;;;;;5052248;28;20021;-62
2020/12/19 08:16:41;;;;;;;26.58;12.77;;;5.70;77.40;;;;;;5047040;28;20028;-62
2020/12/19 08:19:08;;;;;;;29.73;13.80;;;5.70;77.40;;;;;;5048417;28;20417;-62
2020/12/19 08:21:36;;;;;;;31.38;13.60;;;5.70;77.20;;;;;;5055431;28;20496;-62
2020/12/19 08:24:02;;;;;;;30.75;15.18;;;5.70;77.50;;;;;;5046820;28;20025;-62
2020/12/19 08:26:27;;;;;;;25.70;12.80;;;5.70;77.50;;;;;;5055459;28;20092;-62
2020/12/19 08:29:01;;;;;;;27.08;13.13;;;5.70;77.50;;;;;;5055166;28;20478;-62
2020/12/19 08:31:28;;;;;;;29.92;12.80;;;5.70;77.50;;;;;;5052337;28;20037;-62
2020/12/19 08:33:55;;;;;;;30.05;14.05;;;5.70;77.50;;;;;;5057491;28;20373;-62
2020/12/19 08:36:20;;;;;;;25.90;13.52;;;5.70;77.70;;;;;;5053638;28;20488;-62
2020/12/19 08:38:46;;;;;;;24.25;12.50;;;5.70;77.70;;;;;;5055307;28;20029;-62
2020/12/19 08:41:19;;;;;;;26.33;12.90;;;5.70;77.50;;;;;;5050288;28;20373;-62
2020/12/19 08:43:45;;;;;;;25.60;13.77;;;5.70;77.50;;;;;;5051569;28;20477;-62
2020/12/19 08:46:13;;;;;;;29.90;12.82;;;5.70;77.50;;;;;;5052119;28;20044;-62
2020/12/19 08:48:39;;;;;;;27.13;13.95;;;5.70;77.50;;;;;;5049693;28;20033;-62
2020/12/19 08:51:10;;;;;;;26.63;13.50;;;5.70;77.40;;;;;;5046536;28;20044;-63
2020/12/19 08:53:36;;;;;;;25.25;13.43;;;5.80;77.50;;;;;;5053423;28;20025;-62
2020/12/19 08:56:34;;;;;;;21.77;12.88;;;5.80;77.50;;;;;;5051023;28;20025;-63
2020/12/19 08:59:00;;;;;;;25.02;12.90;;;5.80;77.10;;;;;;5051786;28;20025;-62
2020/12/19 09:01:30;;;;;;;24.20;12.50;;;5.80;77.20;;;;;;5047707;28;20169;-62
2020/12/19 09:04:07;;;;;;;25.45;13.30;;;5.80;77.10;;;;;;5047704;28;20039;-62
2020/12/19 09:06:45;;;;;;;22.13;12.00;;;5.70;77.00;;;;;;5052027;28;20029;-63
2020/12/19 09:09:16;;;;;;;24.77;12.68;;;5.80;77.60;;;;;;5043732;28;20041;-62
2020/12/19 09:11:42;;;;;;;25.80;13.30;;;5.80;77.20;;;;;;5052403;28;20115;-62
2020/12/19 09:14:10;;;;;;;22.63;12.20;;;5.70;77.00;;;;;;5047026;28;20044;-63
2020/12/19 09:16:49;;;;;;;26.55;12.80;;;5.80;77.20;;;;;;5042503;28;20021;-63
2020/12/19 09:19:16;;;;;;;21.65;11.80;;;5.80;77.20;;;;;;5045508;28;20025;-63
2020/12/19 09:22:05;;;;;;;23.65;12.80;;;5.70;77.30;;;;;;5045305;28;20377;-63
2020/12/19 09:24:31;;;;;;;23.67;12.65;;;5.80;77.10;;;;;;5045744;28;21740;-62
2020/12/19 09:26:58;;;;;;;23.90;12.13;;;5.80;77.20;;;;;;5037059;28;20029;-62
2020/12/19 09:29:23;;;;;;;21.58;12.75;;;5.80;77.40;;;;;;5043660;28;20037;-62
2020/12/19 09:31:49;;;;;;;21.55;12.07;;;5.80;77.20;;;;;;5041365;28;20039;-62
2020/12/19 09:34:15;;;;;;;21.40;12.30;;;5.80;77.40;;;;;;5042573;28;20032;-62
2020/12/19 09:36:40;;;;;;;24.02;12.43;;;5.80;77.40;;;;;;5040222;28;20017;-61
2020/12/19 09:39:06;;;;;;;23.27;12.68;;;5.80;77.20;;;;;;5044795;28;20055;-63
2020/12/19 09:41:32;;;;;;;23.20;12.15;;;5.80;77.30;;;;;;5037795;28;20056;-62
2020/12/19 09:43:59;;;;;;;23.42;11.68;;;5.80;77.50;;;;;;5045376;28;20032;-63
2020/12/19 09:46:25;;;;;;;25.88;14.45;;;5.80;77.50;;;;;;5048819;28;20025;-63
2020/12/19 09:48:51;;;;;;;22.45;12.63;;;5.80;77.30;;;;;;5049231;28;20031;-62
2020/12/19 09:51:17;;;;;;;24.02;13.70;;;5.80;77.10;;;;;;5040193;28;20041;-62
2020/12/19 09:53:42;;;;;;;26.20;12.40;;;5.80;77.10;;;;;;5044630;28;20029;-63
2020/12/19 09:56:08;;;;;;;21.40;11.68;;;5.80;77.20;;;;;;5043164;28;20021;-63
2020/12/19 09:58:34;;;;;;;22.08;11.80;;;5.80;77.40;;;;;;5041009;28;20036;-62
2020/12/19 10:01:00;;;;;;;21.92;12.80;;;5.90;77.30;;;;;;5044504;28;20104;-62
2020/12/19 10:03:25;;;;;;;22.35;11.90;;;5.90;77.10;;;;;;5043170;28;20021;-62
2020/12/19 10:05:51;;;;;;;22.88;12.35;;;5.90;77.20;;;;;;5046571;28;20497;-62
2020/12/19 10:08:17;;;;;;;22.83;12.15;;;5.90;77.10;;;;;;5041344;28;20039;-63
2020/12/19 10:10:43;;;;;;;20.13;11.73;;;5.90;77.20;;;;;;5044976;28;20037;-63
2020/12/19 10:13:10;;;;;;;23.00;12.10;;;5.90;77.20;;;;;;5039140;28;20112;-63
2020/12/19 10:15:35;;;;;;;20.58;11.23;;;5.90;77.10;;;;;;5043995;28;20060;-62
2020/12/19 10:18:01;;;;;;;25.48;13.10;;;5.90;77.10;;;;;;5040617;28;21508;-63
2020/12/19 10:20:27;;;;;;;21.85;13.43;;;6.00;77.10;;;;;;5044814;28;20055;-63
2020/12/19 10:22:52;;;;;;;18.92;11.85;;;5.90;77.20;;;;;;5039344;28;20040;-63
2020/12/19 10:25:18;;;;;;;21.75;12.00;;;5.90;77.20;;;;;;5047146;28;20029;-62
2020/12/19 10:27:44;;;;;;;21.00;11.77;;;5.90;77.10;;;;;;5044598;28;20370;-62
2020/12/19 10:30:10;;;;;;;20.00;11.57;;;5.90;77.00;;;;;;5039739;28;20037;-63
2020/12/19 10:32:35;;;;;;;22.95;12.18;;;5.90;77.00;;;;;;5042457;28;20029;-63
2020/12/19 10:35:06;;;;;;;21.38;11.68;;;5.90;77.00;;;;;;5042960;28;20120;-63
2020/12/19 10:37:32;;;;;;;21.08;12.25;;;5.90;77.20;;;;;;5042885;28;20030;-62
2020/12/19 10:39:58;;;;;;;19.38;11.40;;;5.90;77.20;;;;;;5040738;28;20036;-62
2020/12/19 10:42:25;;;;;;;20.08;12.38;;;6.00;77.20;;;;;;5041127;28;20029;-62
2020/12/19 10:44:50;;;;;;;23.63;12.73;;;6.00;77.10;;;;;;5043536;28;22017;-62
2020/12/19 10:47:16;;;;;;;22.60;12.00;;;6.00;77.10;;;;;;5049489;28;20108;-62
2020/12/19 10:49:42;;;;;;;19.17;11.90;;;6.10;77.20;;;;;;5046400;28;20029;-62
2020/12/19 10:52:07;;;;;;;19.33;11.45;;;6.10;77.20;;;;;;5045718;28;20377;-62
2020/12/19 10:54:33;;;;;;;19.50;11.45;;;6.10;77.00;;;;;;5043926;28;20021;-62
2020/12/19 10:57:00;;;;;;;23.70;12.05;;;6.10;76.90;;;;;;5038651;28;20021;-62
2020/12/19 10:59:27;;;;;;;21.27;12.10;;;6.10;76.80;;;;;;5048448;28;20454;-62
2020/12/19 11:01:53;;;;;;;20.58;12.07;;;6.10;76.80;;;;;;5043044;28;20026;-62
2020/12/19 11:04:18;;;;;;;21.27;11.48;;;6.10;76.70;;;;;;5052418;28;20025;-63
2020/12/19 11:06:44;;;;;;;18.88;11.32;;;6.00;76.60;;;;;;5053817;28;20032;-63
2020/12/19 11:09:11;;;;;;;20.80;11.70;;;6.00;76.70;;;;;;5045412;28;20086;-63
2020/12/19 11:11:37;;;;;;;21.60;11.35;;;6.00;76.70;;;;;;5052359;28;20492;-63
2020/12/19 11:14:03;;;;;;;20.05;12.65;;;6.00;76.90;;;;;;5050540;28;20092;-63
2020/12/19 11:16:29;;;;;;;19.90;11.82;;;6.00;77.00;;;;;;5049715;28;20437;-63
2020/12/19 11:18:56;;;;;;;21.88;11.48;;;6.00;76.70;;;;;;5056812;28;20039;-63
2020/12/19 11:21:23;;;;;;;19.50;11.23;;;6.00;77.00;;;;;;5050469;28;20072;-63
2020/12/19 11:23:49;;;;;;;18.95;10.60;;;6.00;77.00;;;;;;5048342;28;20112;-63
2020/12/19 11:26:22;;;;;;;19.35;11.40;;;6.00;76.90;;;;;;5052979;28;20029;-63
2020/12/19 11:28:50;;;;;;;16.08;9.48;;;6.00;76.90;;;;;;5039067;28;20545;-63
2020/12/19 11:31:23;;;;;;;19.48;11.50;;;6.00;76.70;;;;;;5040657;28;20025;-63
2020/12/19 11:33:49;;;;;;;19.60;11.40;;;5.90;76.90;;;;;;5022638;28;20092;-63
2020/12/19 11:36:15;;;;;;;16.23;10.32;;;5.90;76.70;;;;;;5025424;28;20397;-63
2020/12/19 11:38:41;;;;;;;18.77;10.80;;;5.90;76.80;;;;;;5020318;28;20026;-63
2020/12/19 11:41:07;;;;;;;18.95;11.00;;;5.90;76.80;;;;;;5028695;28;20429;-63
2020/12/19 11:43:32;;;;;;;16.70;10.85;;;5.80;76.90;;;;;;5023222;28;20021;-62
2020/12/19 11:45:58;;;;;;;18.90;10.88;;;5.90;77.00;;;;;;5028559;28;20043;-63
2020/12/19 11:48:23;;;;;;;17.77;11.00;;;5.80;76.90;;;;;;5029784;28;20029;-63
2020/12/19 11:50:49;;;;;;;16.90;10.35;;;5.80;77.20;;;;;;5028015;28;20052;-63
2020/12/19 11:53:15;;;;;;;20.33;11.40;;;5.80;77.00;;;;;;5028010;28;20029;-63
2020/12/19 11:55:40;;;;;;;18.63;10.98;;;5.80;77.20;;;;;;5035901;28;20033;-63
2020/12/19 11:58:06;;;;;;;18.85;11.38;;;5.80;77.00;;;;;;5020970;28;20069;-63
2020/12/19 12:00:32;;;;;;;22.33;12.65;;;5.80;77.20;;;;;;5021284;28;20034;-63
2020/12/19 12:02:58;;;;;;;21.25;12.80;;;5.90;77.30;;;;;;5006282;28;20029;-63
2020/12/19 12:05:23;;;;;;;30.80;21.58;;;5.80;77.20;;;;;;5026782;28;20025;-63
2020/12/19 12:07:49;;;;;;;41.60;31.83;;;5.90;77.40;;;;;;5028911;28;20044;-63
2020/12/19 12:10:15;;;;;;;37.28;26.73;;;5.90;77.30;;;;;;5032672;28;20121;-63
2020/12/19 12:12:40;;;;;;;34.35;21.77;;;5.80;77.10;;;;;;5029932;28;20029;-63
2020/12/19 12:15:06;;;;;;;25.52;16.33;;;5.90;77.20;;;;;;5032892;28;20032;-63
2020/12/19 12:17:32;;;;;;;22.75;15.32;;;5.90;77.40;;;;;;5028263;28;20037;-63
2020/12/19 12:19:57;;;;;;;21.77;14.68;;;5.90;77.50;;;;;;5033553;28;20052;-63
2020/12/19 12:22:23;;;;;;;22.63;13.68;;;5.90;77.30;;;;;;5030962;28;20040;-63
2020/12/19 12:24:49;;;;;;;21.73;12.20;;;5.90;77.30;;;;;;5028567;28;20022;-63
2020/12/19 12:27:14;;;;;;;20.67;12.80;;;5.90;77.20;;;;;;5026866;28;20355;-63
2020/12/19 12:29:40;;;;;;;21.10;13.00;;;5.90;77.00;;;;;;5051982;28;20041;-63
2020/12/19 12:32:06;;;;;;;20.08;12.82;;;5.80;77.00;;;;;;5054724;28;20368;-63
2020/12/19 12:34:32;;;;;;;21.17;12.90;;;5.80;76.90;;;;;;5052292;28;20027;-63
2020/12/19 12:36:57;;;;;;;21.63;12.65;;;5.80;76.90;;;;;;5050780;28;20041;-63
2020/12/19 12:39:23;;;;;;;23.08;12.95;;;5.80;76.90;;;;;;5051807;28;20440;-63
2020/12/19 12:41:49;;;;;;;24.55;13.30;;;5.70;77.00;;;;;;5052457;28;20033;-63